Date,TemperatureHighF,TemperatureAvgF,TemperatureLowF,DewpointHighF,DewpointAvgF,DewpointLowF,HumidityHigh,HumidityAvg,HumidityLow,PressureMaxIn,PressureMinIn,WindSpeedMaxMPH,WindSpeedAvgMPH,GustSpeedMaxMPH,PrecipitationSumIn
2012-1-21,22.5,19.7,16.1,16.4,14.2,11.1,85,79,74,30.25,30.11,11,2,11,0.03
2012-1-22,42.6,29.7,18.0,39.5,26.5,13.2,94,88,80,30.20,29.72,22,9,22,0.07
2012-1-23,53.6,43.1,33.8,48.5,38.2,26.6,93,83,74,29.91,29.44,34,16,36,0.34
2012-1-24,33.8,31.5,26.7,27.6,25.6,23.0,86,79,74,30.33,29.91,24,8,24,0.00
2012-1-25,32.7,29.1,23.5,30.1,26.0,21.0,93,88,78,30.35,30.10,8,1,8,0.00
2012-1-26,35.5,33.8,32.2,34.2,32.2,30.1,95,94,92,30.10,29.48,7,1,7,0.78
2012-1-27,39.9,34.7,32.6,34.2,31.1,27.8,95,87,69,30.04,29.47,18,6,19,0.16
2012-1-28,34.8,33.0,31.0,31.8,25.0,16.8,94,73,50,30.22,29.86,35,12,35,0.02
2012-1-29,37.0,30.8,24.9,28.2,22.1,18.6,91,70,56,30.24,30.02,35,10,35,0.00
2012-1-30,47.7,34.9,21.9,33.0,25.5,17.3,85,69,55,30.26,29.98,24,8,25,0.00
2012-1-31,57.4,50.5,44.6,46.7,37.4,30.1,84,61,49,30.04,29.91,31,13,31,0.00
2012-2-1,51.9,46.4,36.9,49.1,41.9,33.3,92,85,72,30.13,29.90,24,4,25,0.11
2012-2-2,44.2,36.6,29.3,33.5,30.6,26.5,91,80,63,30.40,30.13,14,1,14,0.00
2012-2-3,49.0,37.5,26.9,37.4,31.8,24.6,92,81,61,30.49,30.33,13,1,13,0.01
2012-2-4,36.0,34.8,33.0,34.2,32.3,30.6,93,91,86,30.33,30.13,10,1,10,0.38
2012-2-5,44.0,33.8,28.1,36.1,29.8,26.3,95,86,60,30.26,30.12,7,0,7,0.02
2012-2-6,47.2,36.6,27.2,35.9,30.7,24.3,91,80,57,30.22,30.08,19,4,20,0.00
2012-2-7,36.7,33.3,31.1,31.7,28.6,25.9,89,83,79,30.30,30.14,10,2,14,0.00
2012-2-8,36.6,30.6,27.2,26.2,22.6,17.5,84,73,46,30.32,30.25,11,2,13,0.01
2012-2-9,33.2,29.0,25.2,24.3,21.3,19.5,84,73,63,30.31,30.16,24,7,24,0.00
2012-2-10,33.2,31.1,28.1,31.7,26.2,20.4,94,82,69,30.16,29.82,31,7,31,0.00
2012-2-11,27.5,17.0,11.1,25.6,10.9,6.3,93,77,62,30.31,29.85,22,7,22,0.00
2012-2-12,28.3,22.0,16.5,18.7,12.4,6.9,73,66,58,30.28,30.21,22,10,22,0.00
2012-2-13,35.7,29.3,21.4,25.0,16.3,10.4,76,59,39,30.21,29.97,21,6,21,0.00
2012-2-14,36.0,33.0,30.1,33.3,29.9,25.0,94,88,76,30.07,29.85,12,5,12,0.06
2012-2-15,42.6,38.1,34.5,38.1,32.4,28.3,87,80,74,30.22,30.00,19,5,19,0.04
2012-2-16,45.3,42.1,34.8,43.1,38.3,31.1,92,86,77,30.11,29.91,20,5,20,0.03
2012-2-17,45.6,38.2,32.0,34.3,29.4,26.1,90,72,49,30.17,30.01,16,4,16,0.00
2012-2-18,42.4,37.1,27.5,31.7,26.5,20.1,83,66,47,30.17,29.98,20,5,20,0.00
2012-2-19,35.1,28.6,23.2,23.2,20.6,17.9,82,72,61,30.19,30.07,19,2,19,0.00
2012-2-20,40.9,30.1,18.9,26.9,21.9,15.7,89,73,53,30.37,30.06,14,2,14,0.00
2012-2-21,45.4,41.2,35.5,40.1,34.4,23.8,87,77,60,30.06,29.69,28,11,29,0.13
2012-2-22,55.5,43.8,36.9,39.1,35.7,32.0,91,74,43,29.74,29.37,24,6,24,0.00
2012-2-23,44.2,38.0,31.1,41.3,36.2,30.3,98,93,83,29.67,29.43,14,2,14,0.56
2012-2-24,44.0,38.2,31.5,39.8,33.5,24.8,93,83,72,29.90,29.35,37,12,43,0.02
2012-2-25,33.3,29.9,27.2,25.1,20.3,18.0,77,67,59,30.42,29.90,32,12,34,0.00
2012-2-26,46.3,33.8,21.1,27.2,22.0,16.9,86,64,41,30.48,30.20,24,7,24,0.00
2012-2-27,48.7,40.6,26.1,30.7,25.8,21.7,84,57,41,30.54,30.15,32,9,32,0.00
2012-2-28,48.7,35.8,21.3,30.4,25.2,18.3,90,68,44,30.55,30.06,14,2,14,0.00
2012-2-29,68.0,53.2,39.6,58.9,41.2,28.7,96,67,38,30.05,29.50,31,7,31,0.55
2012-3-1,45.0,38.1,32.3,34.3,31.3,28.6,88,76,64,29.93,29.63,27,9,27,0.00
2012-3-2,57.3,43.0,0.0,51.9,37.7,29.4,93,81,65,29.91,29.26,40,9,45,0.70
2012-3-3,36.7,33.0,29.8,30.5,25.4,22.0,82,74,65,29.86,29.54,29,14,32,0.00
2012-3-4,35.0,30.6,28.4,26.5,24.4,21.8,85,78,62,29.94,29.83,20,7,21,0.00
2012-3-5,31.9,28.7,25.8,25.1,20.6,14.6,89,72,55,30.48,29.93,21,3,21,0.00
2012-3-6,60.2,43.7,27.3,35.0,27.3,20.6,77,55,34,30.47,30.15,29,11,29,0.00
2012-3-7,66.6,57.5,48.3,46.5,36.5,26.3,60,46,36,30.25,30.01,39,15,39,0.00
2012-3-8,61.5,49.9,32.2,53.0,42.1,28.2,91,75,58,30.25,29.90,36,11,36,0.47
2012-3-9,41.2,35.4,27.0,28.2,22.4,15.6,75,60,39,30.57,30.24,24,8,25,0.00
2012-3-10,51.1,36.4,22.4,29.2,22.8,17.5,87,60,37,30.61,30.32,20,6,21,0.00
2012-3-11,67.0,51.5,35.9,38.7,30.9,24.8,67,47,28,30.35,30.20,17,5,18,0.00
2012-3-12,64.5,57.6,51.3,57.6,50.1,34.4,91,77,47,30.21,29.86,31,12,31,0.32
2012-3-13,70.9,60.9,48.3,58.2,49.9,39.3,88,69,38,30.15,29.90,29,6,29,0.02
2012-3-14,78.2,62.6,43.5,57.7,49.8,39.3,89,65,42,30.18,30.05,20,5,20,0.00
2012-3-15,77.6,68.3,60.5,64.6,58.9,52.8,84,72,58,30.11,30.01,22,7,26,0.01
2012-3-16,75.9,66.0,59.5,60.0,56.4,53.3,85,72,55,30.18,30.07,17,6,17,0.00
2012-3-17,76.4,64.4,52.0,59.7,56.1,49.8,96,76,51,30.23,30.11,18,4,18,0.00
2012-3-18,75.2,65.4,58.6,60.2,57.2,54.4,89,76,56,30.18,30.06,19,3,19,0.00
2012-3-19,82.2,69.1,56.8,62.5,58.6,53.8,92,72,45,30.13,30.02,19,3,20,0.00
2012-3-20,83.8,72.5,59.6,59.9,56.2,52.2,82,59,36,30.16,30.04,16,5,16,0.00
2012-3-21,86.7,75.1,61.6,57.7,53.9,49.4,76,50,29,30.18,30.05,13,3,13,0.00
2012-3-22,83.6,71.5,58.3,58.2,54.5,51.2,80,57,37,30.16,30.05,11,1,12,0.00
2012-3-23,69.4,64.0,61.3,62.7,59.7,55.1,94,86,73,30.08,29.82,11,1,11,0.39
2012-3-24,66.3,59.0,52.9,59.5,54.1,50.3,96,85,63,29.88,29.76,18,3,18,0.22
2012-3-25,69.1,58.8,51.4,56.1,53.0,49.4,96,82,58,30.03,29.88,13,2,17,0.00
2012-3-26,57.6,43.9,34.7,51.4,31.0,22.2,83,61,46,30.43,30.03,20,5,20,0.00
2012-3-27,60.4,44.9,30.6,34.6,25.4,16.9,73,48,28,30.43,29.97,24,7,25,0.00
2012-3-28,71.1,63.1,49.1,55.8,43.3,34.1,72,51,26,30.00,29.81,36,12,37,0.00
2012-3-29,55.6,45.6,36.3,37.4,34.3,31.1,84,65,46,30.17,30.00,16,2,16,0.00
2012-3-30,72.7,48.8,38.5,56.9,40.0,30.9,88,73,54,30.10,29.64,26,6,26,0.00
2012-3-31,43.6,41.1,38.2,38.9,36.7,35.5,93,85,75,30.03,29.86,11,2,11,0.00
2012-4-1,71.6,54.1,39.9,55.5,45.3,35.7,88,74,54,29.99,29.66,21,6,24,0.01
2012-4-2,61.6,49.5,39.6,45.6,38.2,34.8,85,67,40,30.06,29.78,16,4,18,0.00
2012-4-3,74.0,54.9,41.8,55.2,44.7,36.4,86,70,46,30.04,29.78,17,4,20,0.34
2012-4-4,62.7,54.8,46.8,48.6,39.9,30.8,85,60,31,29.94,29.84,20,4,21,0.00
2012-4-5,50.4,43.9,37.2,36.2,31.8,29.0,77,63,51,30.13,29.92,19,4,20,0.00
2012-4-6,57.2,43.0,29.8,34.6,28.0,21.6,85,60,27,30.31,30.13,14,3,14,0.00
2012-4-7,65.3,47.9,28.8,32.8,25.9,15.9,90,50,15,30.39,30.17,12,1,12,0.00
2012-4-8,61.5,53.7,44.8,44.5,31.9,20.2,82,47,22,30.20,30.11,26,4,26,0.02
2012-4-9,62.0,52.8,41.9,39.7,31.0,18.7,72,46,21,30.13,29.89,28,5,32,0.00
2012-4-10,42.9,39.1,34.6,27.5,24.4,20.8,65,56,46,30.12,29.93,20,5,24,0.00
2012-4-11,51.3,40.2,29.0,31.2,27.3,22.1,80,62,41,30.28,30.10,14,2,16,0.00
2012-4-12,59.2,44.8,28.2,33.5,27.9,21.7,91,57,28,30.33,30.17,18,3,19,0.00
2012-4-13,65.3,50.1,31.0,34.6,29.8,24.8,91,52,23,30.31,30.14,17,3,18,0.00
2012-4-14,58.6,55.1,50.4,56.7,46.5,30.4,94,75,41,30.15,29.96,21,6,21,0.33
2012-4-15,78.3,67.9,57.2,60.1,55.7,53.3,94,67,43,29.97,29.83,34,12,35,0.01
2012-4-16,69.3,63.6,50.1,60.2,51.7,41.0,87,66,53,30.22,29.73,36,14,36,0.09
2012-4-17,62.0,52.0,40.1,42.1,39.3,36.6,90,64,43,30.40,30.21,13,2,13,0.00
2012-4-18,67.8,53.9,38.8,40.2,36.2,31.8,88,55,28,30.32,30.05,13,2,14,0.00
2012-4-19,77.2,63.8,49.2,46.4,41.7,37.6,68,46,28,30.07,29.88,19,6,20,0.00
2012-4-20,76.0,62.9,47.6,52.9,47.2,43.5,93,59,37,29.88,29.70,29,9,29,0.12
2012-4-21,48.8,43.2,39.6,45.1,37.0,34.3,92,79,63,30.02,29.84,18,4,18,0.00
2012-4-22,50.8,42.9,35.0,36.8,31.8,25.8,82,66,44,30.03,29.94,19,4,21,0.00
2012-4-23,58.0,47.0,37.0,26.6,21.2,13.9,58,38,20,29.97,29.71,30,8,33,0.00
2012-4-24,62.4,48.9,36.8,28.8,23.2,18.6,60,38,22,29.77,29.68,28,8,28,0.00
2012-4-25,62.4,50.3,35.2,51.0,39.4,27.3,88,67,46,29.86,29.72,18,4,18,0.11
2012-4-26,62.0,54.3,42.9,55.2,47.1,35.2,95,78,48,30.10,29.62,21,5,21,0.14
2012-4-27,55.4,44.5,31.6,35.9,26.6,22.5,76,51,29,30.32,30.10,14,2,14,0.00
2012-4-28,47.6,44.9,40.3,40.0,32.5,21.9,85,63,39,30.27,30.12,24,5,24,0.13
2012-4-29,65.5,51.2,36.5,39.2,32.8,24.8,82,53,26,30.33,30.16,16,3,17,0.00
2012-4-30,81.4,64.6,52.2,60.7,48.2,26.9,94,58,36,30.17,29.86,26,7,32,0.31
2012-5-1,67.8,61.7,56.9,59.9,57.1,53.8,94,86,65,30.09,29.89,16,2,16,0.38
2012-5-2,82.6,71.6,60.4,68.3,63.8,58.4,95,78,55,29.99,29.90,25,6,25,0.69
2012-5-3,85.1,76.6,66.4,67.2,64.2,61.8,90,67,50,30.04,29.90,24,7,25,0.00
2012-5-4,80.3,71.6,62.4,69.5,64.0,58.8,91,78,61,29.98,29.86,16,4,17,0.31
2012-5-5,70.8,63.5,57.6,63.0,58.0,51.6,96,83,67,30.08,29.91,14,4,14,0.00
2012-5-6,77.4,63.5,50.5,52.8,46.3,40.8,85,56,35,30.11,29.94,12,2,12,0.00
2012-5-7,79.8,64.1,52.8,66.5,54.7,41.1,94,73,49,29.95,29.76,19,2,19,0.17
2012-5-8,71.3,61.8,54.1,63.4,54.0,47.7,94,77,50,29.88,29.78,19,3,19,0.02
2012-5-9,65.5,58.6,51.4,51.0,45.9,41.4,80,64,44,29.90,29.80,21,5,22,0.00
2012-5-10,66.0,54.4,42.3,42.2,36.1,26.5,85,55,26,30.06,29.89,21,3,21,0.00
2012-5-11,73.0,60.6,41.5,44.7,37.2,30.5,88,47,21,30.22,30.06,18,3,18,0.00
2012-5-12,76.7,65.9,54.1,47.9,42.6,37.7,61,45,26,30.28,30.17,16,5,16,0.00
2012-5-13,75.8,65.6,53.5,51.9,49.2,43.4,87,58,33,30.19,30.08,17,4,17,0.00
2012-5-14,77.9,63.4,51.3,57.1,51.6,47.9,95,69,35,30.11,29.99,12,3,12,0.00
2012-5-15,82.2,68.4,51.4,54.6,44.0,33.6,88,48,19,30.02,29.89,24,3,24,0.00
2012-5-16,70.8,65.5,54.8,54.2,39.9,30.9,70,40,25,30.12,29.87,16,4,16,0.00
2012-5-17,70.6,58.5,42.8,40.5,36.0,29.3,83,46,25,30.23,30.12,14,3,14,0.00
2012-5-18,81.2,64.6,44.1,47.7,38.6,33.2,76,42,19,30.17,30.04,13,2,13,0.00
2012-5-19,87.6,71.3,52.9,56.2,49.5,43.7,80,50,27,30.15,30.06,16,2,17,0.00
2012-5-20,88.0,75.9,59.6,57.2,52.5,47.6,77,47,28,30.16,30.00,17,3,17,0.00
2012-5-21,78.8,69.4,60.5,62.3,56.3,50.1,84,64,46,30.02,29.96,20,3,20,0.00
2012-5-22,76.0,65.5,56.3,54.6,52.4,45.6,93,65,41,30.01,29.89,12,2,12,0.00
2012-5-23,81.1,68.4,53.3,57.3,54.4,50.3,93,64,41,29.97,29.83,16,2,16,0.00
2012-5-24,86.7,74.3,60.5,62.3,58.1,54.3,85,60,35,29.93,29.78,24,7,24,0.00
2012-5-25,90.3,79.4,68.8,66.6,62.5,55.5,89,58,37,30.08,29.85,19,6,20,0.01
2012-5-26,90.7,77.5,67.1,67.2,58.1,52.3,90,53,39,30.18,30.03,16,2,16,0.00
2012-5-27,94.5,82.1,68.1,67.5,61.9,53.6,77,52,31,30.10,29.92,16,4,16,0.00
2012-5-28,94.3,83.9,71.5,67.6,63.1,56.3,81,53,29,29.95,29.77,21,6,21,0.00
2012-5-29,80.9,74.3,65.3,67.6,63.7,57.4,93,71,48,29.88,29.72,25,5,25,1.21
2012-5-30,76.1,67.6,54.7,60.5,49.9,40.9,90,56,29,29.89,29.81,19,3,19,0.00
2012-5-31,73.0,61.7,51.9,56.2,51.5,47.0,86,70,50,29.97,29.76,24,4,24,0.02
2012-6-1,59.8,55.9,50.5,57.0,51.1,44.4,96,84,70,29.80,29.58,21,6,22,0.26
2012-6-2,71.3,59.7,49.6,51.1,46.9,39.9,89,65,35,29.84,29.76,31,8,31,0.00
2012-6-3,78.5,66.6,56.0,57.1,48.3,38.1,82,56,26,29.85,29.77,21,6,21,0.00
2012-6-4,76.5,66.2,55.3,54.2,49.4,43.6,83,57,33,29.88,29.75,13,2,16,0.00
2012-6-5,67.1,59.0,50.8,54.7,49.2,44.4,91,71,46,30.02,29.88,20,3,20,0.02
2012-6-6,75.8,62.2,44.9,52.9,46.8,42.6,93,61,34,30.08,30.00,14,2,16,0.00
2012-6-7,81.6,67.5,53.5,57.6,50.3,43.8,88,58,28,30.12,30.02,12,1,14,0.01
2012-6-8,84.7,70.2,52.9,54.9,47.2,37.3,91,51,21,30.11,29.94,13,1,13,0.00
2012-6-9,87.0,74.8,60.1,55.7,50.9,46.9,69,46,28,30.02,29.92,16,3,19,0.00
2012-6-10,90.1,77.8,61.5,59.4,54.9,49.7,77,48,28,30.05,29.97,18,3,19,0.00
2012-6-11,79.8,73.5,66.9,70.0,65.2,54.0,95,77,44,29.99,29.86,18,5,18,0.51
2012-6-12,81.6,73.5,61.5,68.2,56.8,40.9,91,61,24,30.08,29.85,20,4,20,0.00
2012-6-13,75.3,64.4,56.6,53.4,47.0,39.0,88,56,29,30.20,30.08,10,2,13,0.00
2012-6-14,83.8,68.2,51.0,55.8,48.4,41.5,85,54,24,30.21,30.09,11,1,12,0.00
2012-6-15,89.3,74.5,54.4,61.9,54.4,48.2,89,53,28,30.16,30.08,14,2,16,0.00
2012-6-16,89.0,77.9,69.6,69.3,63.3,58.3,78,61,43,30.17,29.97,27,6,27,0.09
2012-6-17,84.3,76.4,67.6,70.0,65.8,59.8,88,71,48,29.97,29.83,18,4,19,0.12
2012-6-18,90.3,78.6,66.3,70.6,65.3,61.8,92,67,42,29.92,29.83,25,5,25,0.00
2012-6-19,92.1,82.0,72.8,66.0,63.2,59.1,71,55,35,30.07,29.93,19,5,21,0.00
2012-6-20,91.8,82.0,67.9,66.7,62.3,58.1,84,54,34,30.13,29.97,18,4,20,0.00
2012-6-21,91.6,80.4,70.9,69.1,63.7,56.4,92,60,32,30.01,29.81,21,4,21,0.32
2012-6-22,83.6,73.4,61.2,68.5,59.4,50.7,95,66,37,29.99,29.90,11,1,11,0.01
2012-6-23,85.3,72.5,58.0,65.5,57.2,50.0,92,62,30,30.05,29.97,11,1,11,0.00
2012-6-24,90.1,78.0,62.7,65.7,57.7,51.1,86,53,28,30.03,29.87,14,2,18,0.00
2012-6-25,77.0,72.0,62.6,64.2,53.4,42.6,84,54,30,30.04,29.87,17,4,21,0.00
2012-6-26,80.1,66.3,48.6,53.3,46.9,41.7,91,54,27,30.09,29.95,13,1,13,0.00
2012-6-27,88.0,72.7,55.1,53.3,49.4,44.4,80,49,25,30.06,29.86,16,2,16,0.00
2012-6-28,102.8,85.7,69.3,73.6,62.2,51.4,63,47,29,29.88,29.69,20,4,21,0.00
2012-6-29,92.5,84.6,67.8,75.4,71.5,52.1,78,65,55,29.92,29.72,42,2,43,0.36
2012-6-30,88.8,76.0,63.5,71.9,66.9,60.8,92,75,50,29.96,29.79,17,6,17,0.19
2012-7-1,92.9,75.9,67.4,73.2,67.0,59.4,94,76,44,30.02,29.86,33,4,33,0.00
2012-7-2,92.1,76.4,62.6,72.7,65.9,59.9,93,72,44,30.04,29.93,8,1,8,0.00
2012-7-3,93.6,82.6,72.3,69.8,66.6,59.0,87,61,34,29.96,29.83,16,2,17,0.00
2012-7-4,97.5,85.4,73.2,73.9,69.7,63.9,87,62,37,29.92,29.81,17,3,18,0.00
2012-7-5,97.1,82.9,74.9,73.2,69.1,63.9,83,65,38,29.98,29.87,21,2,21,0.00
2012-7-6,102.3,86.7,71.3,75.9,68.8,60.5,89,60,27,29.98,29.88,11,1,11,0.00
2012-7-7,99.9,88.7,79.0,75.4,71.2,62.5,82,59,30,29.95,29.85,13,2,13,0.00
2012-7-8,86.5,78.5,71.6,74.6,62.3,56.4,80,59,37,30.02,29.90,14,2,14,0.00
2012-7-9,89.7,76.9,60.2,63.2,58.6,52.8,90,57,31,30.06,29.96,11,1,12,0.00
2012-7-10,85.5,75.2,62.4,64.8,59.7,50.3,90,61,42,30.09,29.99,14,2,18,0.00
2012-7-11,91.2,76.8,64.7,60.0,53.1,45.6,74,47,24,30.15,30.07,11,2,16,0.00
2012-7-12,93.2,78.3,62.7,62.7,56.1,49.3,80,50,25,30.13,30.03,11,1,11,0.00
2012-7-13,88.6,77.8,65.8,66.8,62.1,57.3,87,60,37,30.13,30.04,14,3,16,0.00
2012-7-14,91.2,75.9,65.5,70.1,65.2,62.2,93,72,40,30.12,29.99,17,1,21,0.54
2012-7-15,89.3,78.8,70.9,72.5,69.3,66.4,93,75,49,30.11,29.97,16,3,16,0.02
2012-7-16,93.6,81.0,66.8,71.4,67.1,59.6,93,66,34,30.03,29.86,11,1,13,0.00
2012-7-17,96.8,84.2,73.2,73.1,69.5,65.6,86,63,39,29.90,29.79,16,2,16,0.00
2012-7-18,93.4,79.2,72.5,76.0,71.2,65.9,89,77,52,29.97,29.83,18,1,20,0.32
2012-7-19,82.4,75.1,71.3,72.4,70.4,68.9,94,86,69,30.00,29.83,12,1,12,0.33
2012-7-20,74.6,70.3,60.9,70.7,64.0,57.3,92,81,60,30.06,29.86,17,3,18,0.01
2012-7-21,84.7,70.3,55.3,65.0,58.7,52.6,95,71,37,30.13,30.04,11,1,12,0.00
2012-7-22,89.9,77.8,65.6,70.8,64.9,60.6,87,66,42,30.13,30.04,12,1,14,0.00
2012-7-23,93.4,80.4,70.8,73.3,68.6,63.6,87,69,46,30.09,29.87,19,3,22,0.11
2012-7-24,82.0,76.9,70.4,72.1,69.6,64.1,94,79,66,30.02,29.86,14,2,16,0.87
2012-7-25,89.0,77.4,63.5,75.3,65.3,57.3,84,67,51,29.98,29.67,13,3,17,0.00
2012-7-26,88.0,81.4,75.1,74.5,70.6,66.3,85,70,55,29.75,29.63,21,5,24,0.00
2012-7-27,88.2,76.9,66.4,70.0,67.0,59.9,93,74,40,29.89,29.73,21,2,21,0.02
2012-7-28,81.4,70.8,65.3,68.1,63.9,62.3,93,80,55,30.08,29.89,11,1,12,0.01
2012-7-29,87.2,73.6,60.5,67.6,62.6,58.5,95,72,40,30.12,29.99,10,1,12,0.00
2012-7-30,88.4,75.7,64.3,67.0,63.2,59.1,89,68,41,30.02,29.91,10,1,12,0.00
2012-7-31,87.2,76.0,66.0,69.6,64.0,59.7,83,68,45,29.97,29.84,13,2,16,0.00
2012-8-1,88.0,75.2,63.1,67.3,62.0,55.8,91,67,37,29.93,29.86,10,1,11,0.00
2012-8-2,92.1,74.1,57.0,65.1,58.9,54.1,92,64,29,29.93,29.84,13,1,13,0.00
2012-8-3,93.6,80.3,66.0,69.6,63.2,56.7,85,59,31,29.94,29.85,16,2,16,0.00
2012-8-4,90.7,76.8,68.1,75.6,69.9,64.7,94,80,57,30.06,29.85,30,4,32,2.70
2012-8-5,83.2,75.3,63.9,72.0,67.8,59.4,95,79,47,30.13,29.91,17,3,18,0.62
2012-8-6,83.0,69.3,54.2,64.7,58.0,51.9,93,71,43,30.18,30.03,13,1,13,0.00
2012-8-7,85.3,71.9,56.0,67.9,60.1,54.0,95,71,39,30.04,29.93,11,1,11,0.01
2012-8-8,89.0,77.7,66.3,72.9,66.0,60.8,87,68,49,29.96,29.89,11,1,12,0.03
2012-8-9,79.8,72.4,66.8,68.5,66.5,63.9,93,82,60,29.98,29.73,12,1,16,0.29
2012-8-10,70.9,63.4,56.9,66.8,59.0,53.3,95,86,69,29.84,29.66,22,4,26,0.96
2012-8-11,75.3,64.3,57.3,63.6,58.6,54.9,93,82,59,29.98,29.82,18,3,18,0.03
2012-8-12,77.2,66.7,57.0,61.7,58.3,53.3,93,76,46,30.05,29.98,13,1,13,0.01
2012-8-13,79.8,69.4,62.6,65.2,61.1,58.3,90,76,54,30.02,29.91,11,0,11,0.03
2012-8-14,75.3,68.0,60.7,65.3,62.8,57.9,95,84,65,29.95,29.86,11,1,11,0.88
2012-8-15,81.8,68.2,56.2,66.5,60.8,54.3,96,79,53,30.00,29.94,12,1,12,0.01
2012-8-16,81.4,70.2,61.0,64.9,61.8,57.7,90,76,52,30.00,29.80,19,2,22,0.00
2012-8-17,76.7,69.0,60.5,64.0,59.0,52.3,93,72,45,29.99,29.87,12,2,13,0.01
2012-8-18,76.5,63.7,50.8,57.0,52.9,48.8,94,71,43,30.04,29.94,8,1,8,0.01
2012-8-19,77.9,65.0,55.9,56.5,52.9,46.2,92,69,34,29.98,29.88,11,1,11,0.00
2012-8-20,78.3,63.8,49.9,58.1,53.6,48.0,94,73,40,30.01,29.92,12,1,12,0.00
2012-8-21,79.2,66.9,56.6,59.9,55.8,47.8,93,71,35,30.11,30.00,11,1,12,0.00
2012-8-22,83.0,67.0,51.9,60.8,54.5,49.6,93,69,36,30.18,30.08,8,0,8,0.00
2012-8-23,85.7,69.8,54.2,64.3,57.4,51.9,93,69,35,30.17,30.08,10,1,10,0.00
2012-8-24,88.6,73.3,59.3,66.9,59.7,54.0,88,66,34,30.14,30.03,11,1,11,0.00
2012-8-25,91.8,76.1,62.6,66.4,60.3,55.0,88,61,31,30.12,30.05,12,2,12,0.00
2012-8-26,89.5,77.5,67.1,69.4,63.3,57.4,82,63,38,30.14,30.00,11,2,13,0.00
2012-8-27,81.6,74.1,68.8,72.2,68.1,61.5,94,82,65,30.02,29.94,14,1,14,0.46
2012-8-28,81.2,69.5,58.4,64.9,60.0,56.4,93,74,47,30.11,30.02,13,1,13,0.00
2012-8-29,80.3,67.9,55.7,63.3,57.7,53.5,95,73,42,30.12,30.03,8,1,8,0.01
2012-8-30,87.0,69.9,54.4,67.3,57.1,51.8,93,68,33,30.14,30.02,10,1,10,0.00
2012-8-31,91.0,75.5,59.8,73.2,65.1,53.4,84,71,51,30.13,30.04,17,3,17,0.00
2012-9-1,85.1,76.6,72.0,75.4,71.2,68.7,92,84,67,30.09,29.99,7,0,8,0.16
2012-9-2,82.0,76.1,71.1,72.6,70.6,69.0,94,84,70,30.00,29.87,11,2,12,0.42
2012-9-3,84.0,76.3,70.4,73.7,69.7,68.0,93,81,64,29.91,29.86,17,2,17,0.01
2012-9-4,86.5,75.4,70.8,73.4,70.6,67.4,93,86,59,29.90,29.81,14,0,14,0.12
2012-9-5,83.2,73.0,64.8,71.7,67.2,62.9,96,83,61,29.90,29.80,10,1,11,0.02
2012-9-6,86.5,73.6,63.7,71.9,65.3,61.6,94,78,46,29.93,29.84,11,1,13,0.01
2012-9-7,82.6,70.6,61.8,72.2,64.5,59.0,95,82,57,29.93,29.69,17,2,21,0.74
2012-9-8,72.0,63.2,53.8,63.9,55.3,50.5,94,77,51,29.91,29.62,16,3,18,0.71
2012-9-9,71.5,60.8,52.2,56.2,52.6,49.9,93,76,50,30.10,29.89,10,1,10,0.00
2012-9-10,75.3,60.7,47.3,55.1,49.5,44.0,95,71,34,30.26,30.10,7,0,7,0.01
2012-9-11,79.9,64.7,51.6,54.1,50.4,47.0,90,63,35,30.28,30.18,13,2,14,0.00
2012-9-12,83.4,68.3,53.6,60.8,54.9,48.5,85,65,40,30.28,30.18,14,2,16,0.00
2012-9-13,82.8,70.5,61.8,62.2,58.3,52.6,87,68,37,30.30,30.19,10,1,10,0.00
2012-9-14,69.4,59.8,51.1,58.8,54.0,48.9,92,82,53,30.34,30.19,11,1,13,0.07
2012-9-15,73.0,57.9,45.4,52.7,47.4,43.1,95,73,35,30.37,30.20,7,0,8,0.01
2012-9-16,77.6,60.9,46.4,54.3,47.6,42.7,91,67,30,30.21,30.05,10,1,13,0.00
2012-9-17,78.1,65.1,52.9,63.4,54.8,46.6,88,71,48,30.05,29.74,13,3,13,0.01
2012-9-18,66.1,60.1,43.9,62.8,51.7,37.8,94,75,45,30.04,29.61,17,3,20,0.41
2012-9-19,68.4,53.6,39.6,44.6,38.4,32.4,92,62,29,30.18,30.04,13,2,16,0.00
2012-9-20,73.3,61.4,50.8,54.9,47.1,39.0,81,60,45,30.06,29.89,17,5,19,0.00
2012-9-21,69.6,57.8,50.2,54.5,47.4,35.0,92,71,31,30.00,29.75,12,1,14,0.34
2012-9-22,63.2,52.1,44.3,52.4,46.8,40.0,95,83,62,30.16,29.76,28,3,28,0.14
2012-9-23,61.5,49.0,39.3,45.0,38.2,34.1,93,70,37,30.28,30.16,16,2,17,0.00
2012-9-24,67.3,50.4,35.6,40.9,35.7,31.3,93,63,28,30.30,30.05,18,2,18,0.01
2012-9-25,70.1,57.8,49.2,58.8,48.9,38.1,93,73,50,30.05,29.94,18,3,19,0.12
2012-9-26,65.3,62.6,57.3,63.8,60.7,55.9,96,94,90,30.12,29.93,16,2,18,2.02
2012-9-27,62.4,58.2,48.3,60.9,55.3,46.1,96,90,71,30.20,30.10,13,2,14,0.24
2012-9-28,66.6,56.2,47.4,55.1,49.0,45.5,96,79,55,30.19,30.09,10,1,11,0.01
2012-9-29,70.9,56.3,44.1,53.4,46.2,36.6,96,73,30,30.12,29.95,13,1,14,0.00
2012-9-30,66.0,53.7,43.3,51.2,44.3,41.1,95,73,42,29.98,29.90,13,2,14,0.00
2012-10-1,66.9,53.8,40.9,52.4,44.5,39.0,95,73,43,29.97,29.78,10,1,11,0.25
2012-10-2,62.7,58.0,53.3,60.5,56.1,51.5,95,93,90,29.90,29.76,11,2,14,0.34
2012-10-3,67.9,60.6,56.7,58.8,55.9,52.5,95,85,63,30.12,29.89,12,2,16,0.04
2012-10-4,78.5,64.7,53.1,56.7,52.7,49.1,87,67,38,30.17,30.08,14,3,19,0.00
2012-10-5,66.1,52.9,41.6,56.2,49.1,39.4,93,87,70,30.15,30.05,11,2,13,1.27
2012-10-6,54.5,44.6,36.0,39.9,35.9,33.1,93,74,47,30.19,30.06,13,3,16,0.04
2012-10-7,51.9,44.0,38.0,37.1,34.4,30.5,91,70,47,30.22,30.15,12,2,14,0.00
2012-10-8,56.2,43.3,31.6,35.8,31.1,26.7,93,67,34,30.30,30.17,11,1,11,0.00
2012-10-9,63.5,49.3,36.8,40.9,37.3,31.3,92,67,36,30.19,29.94,16,4,19,0.00
2012-10-10,53.3,46.2,34.1,43.9,36.0,28.2,90,69,45,30.27,29.88,24,4,25,0.02
2012-10-11,60.4,46.8,31.8,36.8,32.0,28.5,88,60,33,30.33,30.15,20,4,20,0.00
2012-10-12,54.8,47.8,40.6,40.0,31.3,20.4,75,55,28,30.45,30.19,14,2,17,0.00
2012-10-13,68.3,53.7,37.3,61.2,43.6,30.1,91,70,45,30.42,29.96,22,4,22,0.27
2012-10-14,70.4,65.9,54.1,61.2,58.1,48.1,85,76,64,29.96,29.57,30,10,32,0.03
2012-10-15,55.1,51.2,42.5,48.2,44.6,37.2,92,78,64,30.00,29.73,24,5,28,0.04
2012-10-16,63.9,48.4,32.5,43.3,37.8,30.7,95,70,40,30.05,29.79,13,2,17,0.00
2012-10-17,75.1,62.5,54.2,55.4,47.5,41.7,90,60,37,29.79,29.51,20,6,24,0.41
2012-10-18,63.2,56.6,49.5,52.1,42.3,31.5,91,61,32,29.69,29.41,25,8,28,0.26
2012-10-19,55.0,49.0,44.9,45.4,40.1,35.4,91,73,56,29.67,29.58,16,4,19,0.24
2012-10-20,56.2,49.0,44.8,44.0,42.0,39.8,91,77,58,29.99,29.66,17,5,20,0.01
2012-10-21,65.0,50.2,37.0,47.4,42.0,34.9,95,76,49,30.16,29.99,12,1,13,0.00
2012-10-22,76.3,61.8,49.4,59.1,50.5,44.5,84,68,44,30.12,29.99,17,3,17,0.00
2012-10-23,68.4,63.7,60.5,60.3,56.0,51.5,93,77,57,30.07,29.95,20,4,21,0.38
2012-10-24,80.3,68.3,60.5,59.4,55.1,51.8,93,64,47,30.08,29.98,14,3,16,0.01
2012-10-25,78.3,67.2,55.6,56.0,53.0,49.5,81,62,43,30.04,29.89,21,5,24,0.00
2012-10-26,68.1,50.1,43.5,54.7,44.4,40.0,91,82,60,30.25,29.90,18,4,18,0.30
2012-10-27,53.8,46.0,40.1,40.5,36.3,33.8,88,69,51,30.24,30.13,16,4,20,0.00
2012-10-28,47.9,42.9,38.8,35.9,32.1,28.6,77,66,55,30.20,30.10,19,5,20,0.00
2012-10-29,43.2,40.9,37.8,31.6,28.0,21.5,74,61,43,30.12,29.76,22,8,24,0.00
2012-10-30,41.6,36.5,33.1,36.7,32.9,22.8,94,87,47,29.76,29.54,21,6,28,0.94
2012-10-31,42.5,39.2,37.0,38.6,36.5,34.6,92,90,81,29.80,29.62,17,5,19,0.17
2012-11-1,49.8,41.8,35.3,38.2,33.8,27.6,93,75,49,29.88,29.79,19,5,20,0.01
2012-11-2,45.7,40.8,32.2,32.6,30.0,27.0,82,66,55,30.13,29.86,14,2,17,0.00
2012-11-3,43.5,38.2,30.6,33.1,30.1,25.6,89,73,59,30.25,30.13,7,1,8,0.00
2012-11-4,38.9,33.9,27.0,32.5,28.1,23.4,92,80,68,30.26,30.20,10,1,10,0.00
2012-11-5,44.5,32.4,21.6,28.9,24.9,19.1,92,75,49,30.27,30.19,8,1,10,0.00
2012-11-6,48.8,37.3,23.9,31.5,27.5,20.9,91,69,48,30.19,29.97,11,1,11,0.00
2012-11-7,48.5,37.9,28.5,37.1,31.4,24.6,93,78,59,30.19,29.97,12,3,13,0.00
2012-11-8,51.9,36.1,23.6,40.1,29.8,21.4,95,79,51,30.30,30.18,10,1,12,0.00
2012-11-9,58.6,43.7,29.3,43.5,35.5,27.0,93,75,46,30.28,30.11,17,5,17,0.12
2012-11-10,69.4,59.3,50.5,49.3,43.6,39.5,74,56,47,30.17,30.06,19,8,25,0.00
2012-11-11,68.1,59.9,51.3,45.3,40.9,37.6,65,50,38,30.21,29.99,29,11,29,0.00
2012-11-12,62.3,44.4,32.4,53.1,37.2,25.1,91,77,49,30.39,29.94,26,10,29,0.70
2012-11-13,38.6,32.1,24.8,28.1,24.3,20.9,87,74,52,30.60,30.39,14,3,14,0.00
2012-11-14,41.3,31.6,22.2,27.7,24.3,19.5,90,76,56,30.64,30.46,12,1,12,0.01
2012-11-15,42.8,30.9,22.2,30.9,25.5,19.7,92,81,59,30.47,30.39,7,1,7,0.00
2012-11-16,50.2,34.4,23.6,36.8,27.6,21.4,93,78,45,30.56,30.42,7,0,7,0.00
2012-11-17,56.0,38.5,24.7,36.6,29.5,22.2,93,73,40,30.65,30.54,8,0,10,0.01
2012-11-18,58.4,41.0,26.9,33.9,28.9,24.4,92,66,32,30.56,30.42,8,0,8,0.00
2012-11-19,59.2,44.1,29.0,36.1,30.5,24.8,85,61,31,30.43,30.21,8,1,8,0.00
2012-11-20,59.2,49.1,42.3,43.3,38.3,34.3,81,67,44,30.21,30.10,8,1,8,0.00
2012-11-21,60.4,45.5,32.7,46.6,37.9,30.6,95,77,46,30.29,30.16,10,1,10,0.01
2012-11-22,62.4,50.5,36.8,43.9,39.8,33.9,90,69,46,30.24,29.92,24,6,24,0.00
2012-11-23,55.4,38.8,29.8,49.5,30.6,19.6,91,72,59,30.18,29.86,34,13,34,0.09
2012-11-24,31.3,29.6,28.7,23.6,21.9,19.4,79,73,67,30.25,30.15,19,9,19,0.00
2012-11-25,43.9,34.7,28.7,28.3,24.3,19.8,76,66,52,30.15,29.91,21,6,21,0.00
2012-11-26,42.3,34.9,25.4,31.1,27.2,22.3,90,74,60,30.34,30.08,11,2,11,0.00
2012-11-27,36.3,30.2,25.7,25.8,21.8,18.8,89,72,51,30.44,30.33,11,1,12,0.00
2012-11-28,41.1,32.0,26.1,26.2,23.1,20.1,83,70,53,30.44,30.34,16,5,16,0.00
2012-11-29,47.7,37.1,26.4,29.5,26.1,21.1,82,65,47,30.43,30.25,21,5,21,0.00
2012-11-30,54.7,44.8,35.5,36.6,31.9,27.4,75,61,43,30.26,30.14,17,4,18,0.00
2012-12-1,61.2,50.5,34.6,48.3,41.8,31.2,90,73,62,30.27,30.10,20,6,22,0.00
2012-12-2,58.4,56.2,52.8,54.3,50.9,44.7,93,83,61,30.13,30.00,26,7,27,0.20
2012-12-3,64.3,59.5,52.5,59.1,55.8,50.5,95,88,74,30.14,30.01,20,6,21,0.01
2012-12-4,62.0,52.3,41.3,53.2,46.6,37.4,92,81,72,30.21,30.00,24,6,24,0.19
2012-12-5,41.3,34.6,27.9,37.4,26.6,21.5,86,73,58,30.45,30.21,13,2,16,0.01
2012-12-6,44.8,35.9,28.2,37.2,28.1,21.8,80,73,64,30.39,30.02,16,4,17,0.00
2012-12-7,48.3,45.2,42.8,44.9,42.7,37.5,95,91,81,30.03,29.85,11,2,11,0.45
2012-12-8,46.8,44.1,37.9,45.4,42.2,34.7,95,93,87,30.14,29.83,13,4,13,0.01
2012-12-9,54.2,43.1,38.0,52.8,40.3,34.2,95,90,82,30.16,29.68,14,4,16,1.01
2012-12-10,49.6,37.6,32.1,48.2,34.6,28.9,95,89,81,29.95,29.69,21,8,21,0.01
2012-12-11,33.7,31.7,28.5,31.1,25.8,20.4,91,79,61,30.28,29.94,19,6,19,0.00
2012-12-12,41.6,31.3,25.3,27.4,23.8,20.6,84,74,54,30.46,30.28,12,3,12,0.00
2012-12-13,44.5,34.1,24.5,29.3,24.9,20.1,85,70,51,30.47,30.27,14,4,16,0.00
2012-12-14,49.4,38.3,32.4,32.8,28.0,24.4,81,67,50,30.33,30.20,13,3,14,0.00
2012-12-15,51.9,44.0,35.6,45.9,35.3,28.3,82,72,57,30.20,29.74,22,6,25,0.09
2012-12-16,58.0,52.0,44.2,50.1,46.6,40.8,88,82,67,29.75,29.63,22,7,22,0.00
2012-12-17,44.1,41.0,39.1,40.9,37.9,35.4,92,89,84,29.78,29.63,8,2,8,0.04
2012-12-18,41.2,37.9,33.5,35.6,33.4,30.8,92,84,70,29.87,29.67,18,5,18,0.04
2012-12-19,44.8,41.2,39.6,37.7,35.5,33.8,86,80,69,30.13,29.75,14,3,16,0.00
2012-12-20,51.6,43.0,31.5,47.0,37.5,28.2,93,81,69,30.05,29.21,40,13,40,0.85
2012-12-21,34.4,32.9,31.6,31.9,29.8,24.4,95,89,69,30.04,29.28,33,13,34,0.04
2012-12-22,33.5,28.2,23.8,25.4,22.3,18.5,85,79,65,30.24,30.04,21,8,24,0.00
2012-12-23,37.8,28.8,22.4,28.6,22.4,17.3,91,77,64,30.11,29.99,12,2,12,0.01
2012-12-24,32.9,30.4,26.7,30.0,26.3,22.8,93,85,78,30.05,29.84,12,2,12,0.01
2012-12-25,33.7,30.8,28.8,29.7,26.3,24.0,93,84,74,30.31,30.05,16,4,17,0.00
2012-12-26,32.5,29.4,25.4,29.8,26.0,22.5,94,88,68,30.23,29.75,26,9,26,0.00
2012-12-27,27.8,23.5,13.3,25.0,20.9,9.4,92,90,84,30.26,29.95,16,4,16,0.02
2012-12-28,30.3,23.8,14.6,27.7,20.9,11.2,93,89,85,30.27,29.93,11,2,11,0.02
2012-12-29,29.4,27.2,25.0,27.6,25.0,22.5,93,91,89,30.20,29.83,18,4,19,0.00
2012-12-30,25.8,22.2,19.1,23.0,16.9,13.9,89,80,72,30.48,30.20,21,9,21,0.01
2012-12-31,34.4,29.9,22.1,30.0,24.6,16.0,93,81,64,30.33,30.08,22,9,24,0.01
2013-1-1,32.1,24.7,12.4,28.9,18.9,8.5,89,79,62,30.21,30.07,12,2,12,0.05